createdAt,value
2018-05-21T00:00:47.380Z,6.70
2018-05-21T00:02:08.390Z,7.20
2018-05-21T00:02:47.382Z,6.40
2018-05-21T00:03:47.388Z,6.50
2018-05-21T00:04:47.360Z,6.30
2018-05-21T00:05:47.381Z,5.90
2018-05-21T00:06:47.385Z,7.00
2018-05-21T00:08:08.393Z,6.30
2018-05-21T00:08:47.390Z,6.00
2018-05-21T00:09:47.380Z,6.70
2018-05-21T00:10:47.380Z,6.20
2018-05-21T00:11:47.381Z,6.80
2018-05-21T00:12:47.386Z,6.50
2018-05-21T00:14:08.394Z,6.90
2018-05-21T00:14:47.384Z,6.00
2018-05-21T00:15:47.354Z,5.40
2018-05-21T00:16:47.428Z,5.70
2018-05-21T00:17:47.384Z,5.90
2018-05-21T00:18:47.380Z,5.20
2018-05-21T00:20:08.390Z,5.20
2018-05-21T00:20:47.379Z,5.20
2018-05-21T00:21:47.379Z,5.80
2018-05-21T00:22:47.395Z,5.50
2018-05-21T00:23:47.384Z,5.90
2018-05-21T00:24:47.385Z,6.10
2018-05-21T00:26:08.375Z,6.00
2018-05-21T00:26:47.386Z,5.80
2018-05-21T00:27:47.381Z,6.00
2018-05-21T00:28:47.391Z,5.60
2018-05-21T00:29:47.385Z,6.10
2018-05-21T00:30:48.372Z,6.20
2018-05-21T00:32:08.392Z,6.40
2018-05-21T00:32:47.386Z,6.40
2018-05-21T00:33:47.381Z,6.50
2018-05-21T00:34:47.386Z,6.90
2018-05-21T00:35:47.394Z,6.60
2018-05-21T00:36:47.405Z,6.70
2018-05-21T00:38:08.394Z,7.00
2018-05-21T00:38:47.384Z,6.90
2018-05-21T00:39:47.383Z,6.90
2018-05-21T00:40:47.388Z,6.70
2018-05-21T00:41:47.382Z,6.00
2018-05-21T00:42:47.384Z,6.30
2018-05-21T00:44:08.469Z,6.90
2018-05-21T00:44:47.386Z,6.50
2018-05-21T00:45:47.386Z,6.40
2018-05-21T00:46:47.398Z,6.50
2018-05-21T00:47:47.353Z,6.10
2018-05-21T00:48:47.388Z,6.70
2018-05-21T00:50:08.404Z,6.70
2018-05-21T00:50:47.389Z,6.60
2018-05-21T00:51:47.389Z,9.80
2018-05-21T00:52:47.386Z,6.60
2018-05-21T00:53:47.383Z,6.10
2018-05-21T00:54:47.384Z,6.50
2018-05-21T00:56:08.397Z,6.30
2018-05-21T00:56:47.384Z,6.00
2018-05-21T00:57:47.388Z,5.80
2018-05-21T00:58:47.395Z,6.30
2018-05-21T00:59:47.387Z,6.50
2018-05-21T01:00:47.382Z,6.40
2018-05-21T01:02:08.398Z,6.30
2018-05-21T01:02:47.382Z,6.40
2018-05-21T01:03:47.386Z,6.50
2018-05-21T01:04:47.389Z,6.10
2018-05-21T01:05:47.388Z,6.20
2018-05-21T01:06:47.383Z,6.10
2018-05-21T01:08:08.401Z,6.60
2018-05-21T01:08:47.380Z,6.40
2018-05-21T01:09:47.379Z,6.90
2018-05-21T01:10:47.385Z,6.40
2018-05-21T01:11:47.388Z,6.50
2018-05-21T01:12:47.380Z,6.70
2018-05-21T01:14:08.387Z,6.60
2018-05-21T01:14:47.433Z,6.60
2018-05-21T01:15:47.452Z,6.70
2018-05-21T01:16:47.388Z,6.90
2018-05-21T01:17:47.378Z,6.70
2018-05-21T01:18:47.382Z,6.20
2018-05-21T01:20:08.388Z,7.00
2018-05-21T01:20:47.388Z,6.70
2018-05-21T01:21:47.386Z,6.70
2018-05-21T01:22:48.372Z,7.10
2018-05-21T01:23:47.369Z,6.60
2018-05-21T01:24:47.381Z,6.10
2018-05-21T01:26:08.401Z,6.60
2018-05-21T01:26:47.381Z,7.20
2018-05-21T01:27:47.377Z,6.90
2018-05-21T01:28:47.372Z,6.60
2018-05-21T01:29:47.368Z,6.40
2018-05-21T01:30:47.378Z,6.90
2018-05-21T01:32:08.383Z,7.10
2018-05-21T01:32:47.367Z,7.10
2018-05-21T01:33:47.375Z,6.40
2018-05-21T01:34:47.384Z,7.00
2018-05-21T01:35:47.373Z,7.00
2018-05-21T01:36:47.374Z,6.60
2018-05-21T01:38:08.398Z,6.50
2018-05-21T01:38:47.369Z,7.10
2018-05-21T01:39:47.376Z,6.80
2018-05-21T01:40:47.371Z,6.40
2018-05-21T01:41:47.348Z,6.50
2018-05-21T01:42:47.373Z,7.10
2018-05-21T01:44:08.379Z,6.70
2018-05-21T01:44:47.368Z,6.90
2018-05-21T01:45:47.377Z,6.50
2018-05-21T01:46:47.367Z,6.80
2018-05-21T01:47:47.373Z,6.70
2018-05-21T01:48:47.368Z,6.50
2018-05-21T01:50:08.374Z,7.20
2018-05-21T01:50:47.366Z,6.40
2018-05-21T01:51:47.365Z,6.80
2018-05-21T01:52:47.380Z,7.10
2018-05-21T01:53:47.366Z,6.90
2018-05-21T01:54:47.448Z,6.70
2018-05-21T01:56:08.374Z,7.10
2018-05-21T01:56:47.368Z,6.90
2018-05-21T01:57:47.360Z,7.00
2018-05-21T01:58:47.368Z,7.10
2018-05-21T01:59:47.362Z,6.80
2018-05-21T02:00:47.362Z,6.50
2018-05-21T02:02:08.369Z,6.40
2018-05-21T02:02:47.779Z,7.50
2018-05-21T02:03:47.385Z,6.90
2018-05-21T02:04:47.367Z,7.00
2018-05-21T02:05:47.363Z,6.90
2018-05-21T02:06:47.361Z,6.40
2018-05-21T02:08:08.375Z,6.70
2018-05-21T02:08:47.550Z,6.60
2018-05-21T02:09:47.358Z,6.90
2018-05-21T02:10:47.360Z,7.10
2018-05-21T02:11:47.357Z,7.10
2018-05-21T02:12:47.356Z,8.00
2018-05-21T02:14:08.363Z,7.00
2018-05-21T02:14:47.355Z,8.40
2018-05-21T02:15:47.355Z,8.20
2018-05-21T02:16:47.349Z,7.40
2018-05-21T02:17:47.355Z,7.30
2018-05-21T02:18:47.355Z,6.80
2018-05-21T02:20:08.375Z,6.90
2018-05-21T02:20:47.355Z,7.20
2018-05-21T02:21:47.360Z,7.10
2018-05-21T02:22:47.353Z,8.00
2018-05-21T02:23:47.349Z,7.20
2018-05-21T02:24:47.350Z,7.00
2018-05-21T02:26:08.359Z,7.10
2018-05-21T02:26:47.343Z,6.60
2018-05-21T02:27:47.344Z,6.90
2018-05-21T02:28:47.354Z,6.50
2018-05-21T02:29:47.344Z,7.00
2018-05-21T02:30:47.342Z,7.20
2018-05-21T02:32:08.350Z,7.60
2018-05-21T02:32:47.341Z,7.20
2018-05-21T02:33:48.184Z,7.20
2018-05-21T02:34:47.338Z,7.70
2018-05-21T02:35:47.343Z,7.10
2018-05-21T02:36:47.339Z,7.40
2018-05-21T02:38:08.343Z,7.20
2018-05-21T02:38:47.339Z,7.20
2018-05-21T02:39:47.338Z,7.40
2018-05-21T02:40:47.335Z,7.40
2018-05-21T02:41:47.331Z,7.40
2018-05-21T02:42:47.332Z,7.10
2018-05-21T02:44:08.347Z,7.90
2018-05-21T02:44:47.335Z,7.30
2018-05-21T02:45:47.315Z,7.50
2018-05-21T02:46:47.333Z,7.20
2018-05-21T02:47:47.326Z,7.10
2018-05-21T02:48:47.325Z,7.10
2018-05-21T02:50:08.331Z,7.50
2018-05-21T02:50:47.326Z,7.40
2018-05-21T02:51:47.325Z,7.70
2018-05-21T02:52:47.323Z,8.10
2018-05-21T02:53:47.325Z,7.50
2018-05-21T02:54:47.327Z,7.60
2018-05-21T02:56:08.340Z,7.90
2018-05-21T02:56:47.318Z,7.80
2018-05-21T02:57:47.321Z,7.60
2018-05-21T02:58:47.317Z,7.80
2018-05-21T02:59:47.316Z,7.80
2018-05-21T03:00:47.319Z,7.30
2018-05-21T03:02:08.322Z,6.80
2018-05-21T03:02:47.312Z,6.70
2018-05-21T03:03:47.309Z,7.70
2018-05-21T03:04:48.315Z,7.60
2018-05-21T03:05:47.314Z,6.90
2018-05-21T03:06:47.305Z,7.20
2018-05-21T03:08:08.315Z,7.80
2018-05-21T03:08:47.306Z,7.40
2018-05-21T03:09:47.313Z,7.50
2018-05-21T03:10:47.299Z,7.50
2018-05-21T03:11:47.303Z,7.20
2018-05-21T03:12:47.304Z,7.80
2018-05-21T03:14:08.310Z,7.90
2018-05-21T03:14:47.298Z,7.30
2018-05-21T03:15:47.296Z,7.70
2018-05-21T03:16:47.300Z,7.10
2018-05-21T03:17:47.372Z,7.60
2018-05-21T03:18:47.328Z,7.90
2018-05-21T03:20:08.301Z,7.70
2018-05-21T03:20:47.295Z,7.10
2018-05-21T03:21:47.287Z,7.60
2018-05-21T03:22:47.289Z,7.80
2018-05-21T03:23:47.295Z,7.30
2018-05-21T03:24:47.284Z,7.70
2018-05-21T03:26:08.272Z,8.10
2018-05-21T03:26:47.280Z,9.00
2018-05-21T03:27:47.282Z,8.00
2018-05-21T03:28:47.283Z,9.70
2018-05-21T03:29:47.280Z,9.00
2018-05-21T03:30:47.272Z,9.30
2018-05-21T03:32:08.299Z,8.50
2018-05-21T03:32:47.278Z,9.10
2018-05-21T03:33:47.276Z,8.50
2018-05-21T03:34:47.274Z,8.00
2018-05-21T03:35:47.274Z,7.70
2018-05-21T03:36:47.275Z,7.40
2018-05-21T03:38:08.283Z,7.20
2018-05-21T03:38:47.270Z,7.70
2018-05-21T03:39:47.264Z,8.20
2018-05-21T03:40:47.265Z,7.00
2018-05-21T03:41:47.245Z,7.40
2018-05-21T03:42:47.265Z,7.60
2018-05-21T03:44:08.271Z,7.70
2018-05-21T03:44:47.260Z,8.10
2018-05-21T03:45:47.265Z,7.10
2018-05-21T03:46:47.258Z,7.50
2018-05-21T03:47:47.258Z,7.50
2018-05-21T03:48:47.258Z,7.70
2018-05-21T03:50:08.273Z,7.90
2018-05-21T03:50:47.252Z,7.70
2018-05-21T03:51:47.260Z,8.20
2018-05-21T03:52:47.249Z,7.50
2018-05-21T03:53:47.257Z,7.40
2018-05-21T03:54:47.252Z,8.10
2018-05-21T03:56:08.255Z,7.60
2018-05-21T03:56:47.248Z,6.90
2018-05-21T03:57:47.239Z,8.00
2018-05-21T03:58:47.949Z,7.80
2018-05-21T03:59:47.243Z,7.10
2018-05-21T04:00:47.229Z,7.60
2018-05-21T04:02:08.250Z,7.30
2018-05-21T04:02:47.235Z,7.10
2018-05-21T04:03:47.234Z,7.60
2018-05-21T04:04:47.233Z,7.60
2018-05-21T04:05:47.341Z,7.50
2018-05-21T04:06:47.209Z,7.50
2018-05-21T04:08:08.242Z,7.70
2018-05-21T04:08:47.230Z,7.20
2018-05-21T04:09:47.234Z,7.30
2018-05-21T04:10:47.228Z,7.60
2018-05-21T04:11:47.277Z,7.70
2018-05-21T04:12:47.224Z,7.10
2018-05-21T04:14:08.232Z,7.10
2018-05-21T04:14:47.230Z,7.20
2018-05-21T04:15:47.242Z,7.30
2018-05-21T04:16:47.221Z,7.50
2018-05-21T04:17:47.206Z,7.40
2018-05-21T04:18:47.238Z,7.30
2018-05-21T04:20:08.232Z,7.30
2018-05-21T04:20:47.222Z,7.40
2018-05-21T04:21:47.220Z,6.90
2018-05-21T04:22:47.215Z,7.50
2018-05-21T04:23:47.217Z,7.60
2018-05-21T04:24:47.214Z,7.40
2018-05-21T04:26:08.218Z,7.20
2018-05-21T04:26:47.213Z,7.30
2018-05-21T04:27:47.210Z,7.00
2018-05-21T04:28:47.203Z,7.30
2018-05-21T04:29:47.206Z,7.10
2018-05-21T04:30:47.212Z,7.20
2018-05-21T04:32:08.227Z,7.40
2018-05-21T04:32:47.204Z,7.00
2018-05-21T04:33:47.832Z,7.10
2018-05-21T04:34:47.201Z,7.40
2018-05-21T04:35:47.211Z,7.30
2018-05-21T04:36:47.735Z,7.10
2018-05-21T04:38:08.213Z,7.50
2018-05-21T04:38:47.196Z,7.20
2018-05-21T04:39:47.199Z,7.30
2018-05-21T04:40:47.205Z,7.40
2018-05-21T04:41:47.192Z,7.00
2018-05-21T04:42:47.190Z,7.20
2018-05-21T04:44:08.212Z,7.10
2018-05-21T04:44:47.208Z,7.30
2018-05-21T04:45:47.191Z,6.70
2018-05-21T04:46:47.194Z,7.10
2018-05-21T04:47:47.273Z,7.20
2018-05-21T04:48:47.195Z,7.70
2018-05-21T04:50:08.286Z,7.90
2018-05-21T04:50:47.207Z,8.80
2018-05-21T04:51:47.185Z,9.30
2018-05-21T04:52:47.188Z,7.20
2018-05-21T04:53:47.190Z,8.00
2018-05-21T04:54:47.168Z,8.90
2018-05-21T04:56:08.195Z,9.40
2018-05-21T04:56:47.191Z,9.80
2018-05-21T04:57:47.195Z,9.10
2018-05-21T04:58:47.199Z,9.90
2018-05-21T04:59:47.189Z,9.40
2018-05-21T05:00:47.185Z,9.60
2018-05-21T05:02:08.198Z,10.40
2018-05-21T05:02:47.194Z,9.20
2018-05-21T05:03:47.191Z,9.50
2018-05-21T05:04:47.192Z,8.70
2018-05-21T05:05:47.187Z,9.00
2018-05-21T05:06:47.187Z,8.90
2018-05-21T05:08:08.169Z,8.50
2018-05-21T05:08:47.191Z,7.90
2018-05-21T05:09:47.188Z,8.50
2018-05-21T05:10:47.190Z,8.30
2018-05-21T05:11:47.187Z,8.80
2018-05-21T05:12:47.192Z,8.20
2018-05-21T05:14:08.203Z,7.50
2018-05-21T05:14:47.205Z,7.20
2018-05-21T05:15:47.271Z,7.80
2018-05-21T05:16:47.192Z,8.30
2018-05-21T05:17:47.189Z,7.50
2018-05-21T05:18:47.200Z,7.50
2018-05-21T05:20:08.208Z,7.20
2018-05-21T05:20:47.180Z,6.90
2018-05-21T05:21:47.169Z,7.30
2018-05-21T05:22:47.207Z,6.80
2018-05-21T05:23:47.207Z,7.00
2018-05-21T05:24:47.205Z,7.20
2018-05-21T05:26:08.220Z,7.00
2018-05-21T05:26:47.200Z,7.30
2018-05-21T05:27:47.210Z,7.20
2018-05-21T05:28:47.214Z,7.20
2018-05-21T05:29:47.212Z,7.40
2018-05-21T05:30:47.218Z,7.10
2018-05-21T05:32:08.236Z,7.00
2018-05-21T05:32:47.228Z,6.80
2018-05-21T05:33:47.234Z,6.80
2018-05-21T05:34:47.225Z,6.70
2018-05-21T05:35:47.224Z,7.10
2018-05-21T05:36:47.229Z,6.80
2018-05-21T05:38:09.004Z,6.50
2018-05-21T05:38:47.530Z,6.20
2018-05-21T05:39:47.236Z,6.90
2018-05-21T05:40:47.244Z,6.90
2018-05-21T05:41:47.244Z,6.40
2018-05-21T05:42:47.244Z,7.10
2018-05-21T05:44:08.292Z,6.80
2018-05-21T05:44:47.230Z,6.60
2018-05-21T05:45:47.252Z,6.60
2018-05-21T05:46:47.261Z,6.70
2018-05-21T05:47:47.257Z,6.30
2018-05-21T05:48:47.265Z,6.80
2018-05-21T05:50:08.249Z,6.90
2018-05-21T05:50:47.258Z,6.70
2018-05-21T05:51:47.262Z,6.50
2018-05-21T05:52:47.263Z,6.20
2018-05-21T05:53:47.268Z,6.30
2018-05-21T05:54:47.271Z,5.70
2018-05-21T05:56:08.285Z,5.20
2018-05-21T05:56:47.269Z,6.70
2018-05-21T05:57:47.271Z,5.80
2018-05-21T05:58:47.279Z,6.30
2018-05-21T05:59:47.286Z,6.20
2018-05-21T06:00:47.283Z,6.20
2018-05-21T06:02:08.287Z,6.10
2018-05-21T06:02:47.316Z,5.70
2018-05-21T06:03:47.282Z,6.20
2018-05-21T06:04:47.292Z,5.50
2018-05-21T06:05:47.296Z,5.50
2018-05-21T06:06:47.290Z,5.80
2018-05-21T06:08:08.303Z,5.90
2018-05-21T06:08:47.299Z,6.00
2018-05-21T06:09:47.298Z,5.70
2018-05-21T06:10:47.307Z,6.00
2018-05-21T06:11:47.309Z,6.20
2018-05-21T06:12:47.306Z,5.40
2018-05-21T06:14:08.323Z,5.90
2018-05-21T06:14:47.317Z,5.60
2018-05-21T06:15:47.460Z,5.90
2018-05-21T06:16:47.316Z,6.00
2018-05-21T06:17:47.820Z,5.60
2018-05-21T06:18:47.334Z,6.00
2018-05-21T06:20:09.119Z,6.40
2018-05-21T06:20:47.307Z,5.20
2018-05-21T06:21:47.324Z,6.00
2018-05-21T06:22:47.331Z,6.30
2018-05-21T06:23:47.336Z,5.50
2018-05-21T06:24:47.331Z,6.20
2018-05-21T06:26:08.344Z,5.50
2018-05-21T06:26:47.338Z,5.60
2018-05-21T06:27:47.336Z,5.60
2018-05-21T06:28:47.346Z,6.50
2018-05-21T06:29:47.344Z,5.30
2018-05-21T06:30:47.352Z,5.50
2018-05-21T06:32:08.327Z,5.60
2018-05-21T06:32:47.351Z,5.60
2018-05-21T06:33:47.376Z,6.00
2018-05-21T06:34:47.359Z,5.60
2018-05-21T06:35:47.608Z,5.20
2018-05-21T06:36:47.379Z,5.60
2018-05-21T06:38:08.370Z,5.20
2018-05-21T06:38:47.362Z,5.60
2018-05-21T06:39:47.402Z,5.10
2018-05-21T06:40:47.701Z,5.40
2018-05-21T06:41:47.592Z,5.30
2018-05-21T06:42:47.776Z,5.80
2018-05-21T06:44:08.380Z,5.50
2018-05-21T06:44:47.396Z,5.60
2018-05-21T06:45:47.393Z,5.20
2018-05-21T06:46:47.356Z,4.70
2018-05-21T06:47:47.434Z,5.20
2018-05-21T06:48:47.398Z,5.10
2018-05-21T06:50:08.395Z,5.60
2018-05-21T06:50:47.386Z,5.30
2018-05-21T06:51:47.368Z,4.90
2018-05-21T06:52:47.392Z,5.30
2018-05-21T06:53:47.385Z,4.80
2018-05-21T06:54:47.394Z,4.60
2018-05-21T06:56:08.379Z,4.90
2018-05-21T06:56:47.413Z,4.90
2018-05-21T06:57:47.411Z,4.80
2018-05-21T06:58:47.409Z,5.20
2018-05-21T06:59:47.431Z,5.20
2018-05-21T07:00:47.420Z,4.60
2018-05-21T07:02:08.412Z,4.40
2018-05-21T07:02:47.402Z,4.70
2018-05-21T07:03:47.405Z,5.00
2018-05-21T07:04:47.400Z,4.60
2018-05-21T07:05:47.440Z,4.50
2018-05-21T07:06:47.411Z,4.50
2018-05-21T07:08:08.418Z,4.80
2018-05-21T07:08:47.415Z,4.60
2018-05-21T07:09:47.391Z,4.00
2018-05-21T07:10:47.752Z,5.20
2018-05-21T07:11:47.422Z,3.90
2018-05-21T07:12:47.415Z,4.60
2018-05-21T07:14:08.427Z,4.50
2018-05-21T07:14:47.429Z,4.70
2018-05-21T07:15:47.426Z,4.10
2018-05-21T07:16:47.445Z,4.50
2018-05-21T07:17:47.427Z,4.40
2018-05-21T07:18:47.476Z,4.50
2018-05-21T07:20:08.449Z,4.30
2018-05-21T07:20:47.427Z,4.30
2018-05-21T07:21:47.424Z,4.20
2018-05-21T07:22:47.429Z,4.40
2018-05-21T07:23:47.434Z,4.60
2018-05-21T07:24:47.413Z,4.30
2018-05-21T07:26:08.492Z,4.70
2018-05-21T07:26:48.248Z,4.30
2018-05-21T07:27:47.435Z,4.20
2018-05-21T07:28:47.442Z,4.00
2018-05-21T07:29:47.436Z,4.10
2018-05-21T07:30:47.558Z,4.40
2018-05-21T07:32:08.448Z,4.50
2018-05-21T07:32:47.497Z,4.10
2018-05-21T07:33:47.442Z,4.10
2018-05-21T07:34:47.447Z,4.70
2018-05-21T07:35:47.449Z,4.40
2018-05-21T07:36:47.562Z,4.60
2018-05-21T07:38:08.481Z,4.40
2018-05-21T07:38:47.497Z,3.70
2018-05-21T07:39:47.448Z,4.50
2018-05-21T07:40:47.461Z,4.40
2018-05-21T07:41:48.197Z,4.50
2018-05-21T07:42:47.461Z,4.00
2018-05-21T07:44:08.468Z,4.00
2018-05-21T07:44:47.477Z,4.50
2018-05-21T07:45:47.465Z,4.30
2018-05-21T07:46:47.463Z,4.20
2018-05-21T07:47:47.469Z,4.80
2018-05-21T07:48:47.462Z,4.20
2018-05-21T07:50:08.482Z,4.30
2018-05-21T07:50:47.475Z,4.40
2018-05-21T07:51:47.467Z,4.30
2018-05-21T07:52:47.473Z,4.00
2018-05-21T07:53:47.478Z,3.90
2018-05-21T07:54:47.479Z,4.40
2018-05-21T07:56:08.482Z,4.40
2018-05-21T07:56:47.514Z,4.40
2018-05-21T07:57:47.479Z,3.80
2018-05-21T07:58:47.480Z,3.70
2018-05-21T07:59:47.481Z,4.60
2018-05-21T08:00:47.485Z,4.20
2018-05-21T08:02:08.508Z,4.10
2018-05-21T08:02:47.488Z,4.10
2018-05-21T08:03:47.484Z,4.40
2018-05-21T08:04:47.488Z,4.30
2018-05-21T08:05:47.490Z,4.60
2018-05-21T08:06:47.494Z,4.30
2018-05-21T08:08:08.583Z,4.40
2018-05-21T08:08:47.500Z,4.20
2018-05-21T08:09:47.498Z,4.20
2018-05-21T08:10:47.504Z,4.10
2018-05-21T08:11:47.500Z,4.20
2018-05-21T08:12:48.479Z,4.10
2018-05-21T08:14:08.514Z,4.60
2018-05-21T08:14:47.612Z,4.50
2018-05-21T08:15:47.512Z,4.00
2018-05-21T08:16:47.512Z,4.00
2018-05-21T08:17:47.517Z,4.70
2018-05-21T08:18:47.519Z,3.90
2018-05-21T08:20:08.532Z,4.50
2018-05-21T08:20:47.516Z,4.80
2018-05-21T08:21:47.523Z,4.30
2018-05-21T08:22:47.527Z,3.40
2018-05-21T08:23:47.522Z,4.30
2018-05-21T08:24:47.541Z,3.90
2018-05-21T08:26:08.561Z,4.70
2018-05-21T08:26:47.540Z,4.80
2018-05-21T08:27:47.534Z,4.20
2018-05-21T08:28:47.538Z,4.60
2018-05-21T08:29:47.540Z,4.00
2018-05-21T08:30:47.541Z,4.80
2018-05-21T08:32:08.554Z,4.00
2018-05-21T08:32:47.555Z,3.80
2018-05-21T08:33:47.551Z,3.80
2018-05-21T08:34:47.549Z,4.70
2018-05-21T08:35:47.562Z,4.10
2018-05-21T08:36:47.560Z,4.10
2018-05-21T08:38:08.564Z,3.60
2018-05-21T08:38:47.556Z,3.70
2018-05-21T08:39:47.560Z,3.70
2018-05-21T08:40:47.724Z,3.30
2018-05-21T08:41:47.571Z,3.60
2018-05-21T08:42:47.707Z,3.50
2018-05-21T08:44:08.595Z,3.50
2018-05-21T08:44:47.575Z,3.70
2018-05-21T08:45:47.587Z,3.70
2018-05-21T08:46:47.593Z,3.70
2018-05-21T08:47:47.593Z,3.70
2018-05-21T08:48:47.611Z,3.80
2018-05-21T08:50:09.567Z,3.50
2018-05-21T08:50:47.616Z,3.40
2018-05-21T08:51:47.609Z,3.70
2018-05-21T08:52:47.621Z,3.80
2018-05-21T08:53:47.630Z,3.30
2018-05-21T08:54:47.633Z,3.50
2018-05-21T08:56:08.633Z,3.40
2018-05-21T08:56:47.648Z,3.30
2018-05-21T08:57:47.659Z,3.30
2018-05-21T08:58:47.730Z,3.40
2018-05-21T08:59:47.677Z,3.60
2018-05-21T09:00:47.670Z,3.50
2018-05-21T09:02:08.697Z,3.50
2018-05-21T09:02:47.696Z,3.50
2018-05-21T09:03:47.705Z,3.70
2018-05-21T09:04:47.728Z,3.30
2018-05-21T09:05:47.713Z,3.50
2018-05-21T09:06:47.723Z,3.20
2018-05-21T09:08:08.745Z,3.10
2018-05-21T09:08:47.735Z,3.60
2018-05-21T09:09:47.738Z,3.60
2018-05-21T09:10:47.745Z,3.60
2018-05-21T09:11:47.756Z,3.70
2018-05-21T09:12:47.763Z,3.20
2018-05-21T09:14:08.806Z,3.60
2018-05-21T09:14:47.782Z,3.50
2018-05-21T09:15:47.796Z,3.80
2018-05-21T09:16:47.801Z,3.30
2018-05-21T09:17:48.495Z,3.60
2018-05-21T09:18:47.823Z,4.00
2018-05-21T09:20:08.843Z,3.30
2018-05-21T09:20:47.875Z,3.20
2018-05-21T09:21:47.845Z,2.90
2018-05-21T09:22:47.853Z,3.50
2018-05-21T09:23:47.865Z,3.60
2018-05-21T09:24:47.879Z,3.40
2018-05-21T09:26:08.965Z,2.90
2018-05-21T09:26:47.901Z,3.00
2018-05-21T09:27:47.907Z,3.50
2018-05-21T09:28:47.914Z,3.10
2018-05-21T09:29:47.927Z,3.10
2018-05-21T09:30:47.937Z,3.00
2018-05-21T09:32:08.958Z,3.10
2018-05-21T09:32:47.970Z,3.20
2018-05-21T09:33:47.973Z,3.10
2018-05-21T09:34:47.974Z,3.00
2018-05-21T09:35:47.998Z,3.30
2018-05-21T09:36:47.986Z,3.20
2018-05-21T09:38:09.015Z,3.10
2018-05-21T09:38:48.010Z,2.90
2018-05-21T09:39:48.027Z,3.00
2018-05-21T09:40:48.035Z,2.80
2018-05-21T09:41:48.047Z,3.00
2018-05-21T09:42:48.058Z,3.10
2018-05-21T09:44:09.085Z,2.90
2018-05-21T09:44:48.073Z,3.20
2018-05-21T09:45:48.110Z,2.70
2018-05-21T09:46:48.099Z,3.00
2018-05-21T09:47:48.154Z,3.20
2018-05-21T09:48:48.155Z,2.80
2018-05-21T09:50:09.152Z,2.70
2018-05-21T09:50:48.146Z,2.50
2018-05-21T09:51:48.170Z,3.30
2018-05-21T09:52:48.166Z,3.30
2018-05-21T09:53:48.163Z,2.80
2018-05-21T09:54:48.188Z,3.20
2018-05-21T09:56:10.183Z,3.30
2018-05-21T09:56:48.226Z,2.90
2018-05-21T09:57:48.212Z,2.80
2018-05-21T09:58:48.228Z,3.40
2018-05-21T09:59:48.232Z,3.10
2018-05-21T10:00:48.251Z,2.90
2018-05-21T10:02:09.329Z,3.00
2018-05-21T10:02:48.262Z,2.50
2018-05-21T10:03:48.276Z,3.10
2018-05-21T10:04:48.296Z,3.50
2018-05-21T10:05:48.301Z,3.40
2018-05-21T10:06:48.313Z,3.20
2018-05-21T10:08:09.336Z,3.50
2018-05-21T10:08:48.338Z,3.00
2018-05-21T10:09:48.339Z,2.80
2018-05-21T10:10:48.357Z,3.60
2018-05-21T10:11:48.363Z,3.40
2018-05-21T10:12:48.370Z,3.40
2018-05-21T10:14:09.403Z,2.60
2018-05-21T10:14:48.398Z,3.40
2018-05-21T10:15:48.425Z,2.50
2018-05-21T10:16:48.475Z,2.90
2018-05-21T10:17:48.427Z,3.30
2018-05-21T10:18:48.431Z,3.30
2018-05-21T10:20:09.449Z,2.80
2018-05-21T10:20:48.450Z,3.30
2018-05-21T10:21:48.454Z,3.50
2018-05-21T10:22:48.472Z,3.40
2018-05-21T10:23:48.474Z,3.20
2018-05-21T10:24:48.496Z,3.10
2018-05-21T10:26:09.603Z,3.00
2018-05-21T10:26:48.502Z,2.80
2018-05-21T10:27:48.536Z,3.30
2018-05-21T10:28:48.532Z,2.90
2018-05-21T10:29:48.547Z,3.30
2018-05-21T10:30:48.548Z,2.50
2018-05-21T10:32:09.567Z,3.40
2018-05-21T10:32:48.572Z,2.90
2018-05-21T10:33:48.580Z,3.00
2018-05-21T10:34:48.591Z,3.20
2018-05-21T10:35:48.600Z,3.40
2018-05-21T10:36:48.608Z,3.00
2018-05-21T10:38:09.639Z,3.10
2018-05-21T10:38:48.630Z,3.40
2018-05-21T10:39:48.653Z,3.30
2018-05-21T10:40:48.661Z,3.30
2018-05-21T10:41:48.671Z,2.90
2018-05-21T10:42:48.687Z,3.30
2018-05-21T10:44:09.715Z,3.10
2018-05-21T10:44:48.670Z,3.30
2018-05-21T10:45:48.715Z,2.90
2018-05-21T10:46:48.879Z,3.10
2018-05-21T10:47:48.733Z,3.00
2018-05-21T10:48:48.750Z,3.30
2018-05-21T10:50:09.777Z,2.90
2018-05-21T10:50:48.773Z,3.20
2018-05-21T10:51:48.781Z,3.60
2018-05-21T10:52:48.795Z,3.20
2018-05-21T10:53:48.818Z,3.00
2018-05-21T10:54:48.812Z,3.30
2018-05-21T10:56:09.868Z,3.10
2018-05-21T10:56:48.854Z,2.90
2018-05-21T10:57:48.855Z,3.20
2018-05-21T10:58:48.865Z,2.40
2018-05-21T10:59:48.887Z,3.50
2018-05-21T11:00:48.889Z,3.10
2018-05-21T11:02:09.926Z,3.00
2018-05-21T11:02:48.908Z,3.30
2018-05-21T11:03:48.922Z,3.00
2018-05-21T11:04:48.941Z,3.50
2018-05-21T11:05:48.946Z,3.00
2018-05-21T11:06:48.995Z,2.90
2018-05-21T11:08:09.972Z,3.20
2018-05-21T11:08:48.978Z,3.20
2018-05-21T11:09:48.990Z,3.40
2018-05-21T11:10:49.011Z,3.20
2018-05-21T11:11:49.038Z,2.90
2018-05-21T11:12:49.095Z,2.90
2018-05-21T11:14:10.060Z,2.80
2018-05-21T11:14:49.023Z,2.70
2018-05-21T11:15:49.074Z,3.40
2018-05-21T11:16:49.080Z,3.10
2018-05-21T11:17:49.289Z,3.20
2018-05-21T11:18:49.099Z,3.00
2018-05-21T11:20:10.134Z,2.70
2018-05-21T11:20:49.123Z,2.80
2018-05-21T11:21:49.142Z,2.90
2018-05-21T11:22:49.146Z,3.30
2018-05-21T11:23:49.154Z,3.20
2018-05-21T11:24:49.178Z,2.80
2018-05-21T11:26:10.206Z,2.70
2018-05-21T11:26:49.194Z,3.20
2018-05-21T11:27:49.214Z,3.10
2018-05-21T11:28:49.219Z,3.00
2018-05-21T11:29:50.069Z,2.60
2018-05-21T11:30:49.242Z,2.80
2018-05-21T11:32:10.274Z,2.30
2018-05-21T11:32:49.272Z,2.80
2018-05-21T11:33:49.301Z,2.90
2018-05-21T11:34:49.299Z,2.40
2018-05-21T11:35:49.316Z,2.90
2018-05-21T11:36:49.328Z,2.60
2018-05-21T11:38:10.380Z,3.20
2018-05-21T11:38:49.346Z,3.20
2018-05-21T11:39:49.357Z,2.60
2018-05-21T11:40:49.373Z,2.80
2018-05-21T11:41:49.381Z,2.60
2018-05-21T11:42:49.398Z,2.70
2018-05-21T11:44:10.442Z,2.70
2018-05-21T11:44:49.421Z,2.70
2018-05-21T11:45:49.415Z,2.70
2018-05-21T11:46:49.450Z,3.20
2018-05-21T11:47:49.483Z,2.70
2018-05-21T11:48:49.630Z,2.90
2018-05-21T11:50:10.499Z,2.70
2018-05-21T11:50:49.501Z,2.80
2018-05-21T11:51:49.498Z,2.60
2018-05-21T11:52:49.516Z,2.70
2018-05-21T11:53:49.538Z,2.90
2018-05-21T11:54:49.539Z,3.20
2018-05-21T11:56:10.569Z,3.00
2018-05-21T11:56:49.565Z,2.90
2018-05-21T11:57:49.581Z,2.30
2018-05-21T11:58:49.599Z,2.70
2018-05-21T11:59:49.582Z,3.00
2018-05-21T12:00:49.623Z,2.80
2018-05-21T12:02:10.645Z,2.90
2018-05-21T12:02:49.634Z,2.70
2018-05-21T12:03:49.654Z,2.80
2018-05-21T12:04:49.671Z,2.50
2018-05-21T12:05:49.682Z,2.40
2018-05-21T12:06:49.696Z,2.60
2018-05-21T12:08:10.722Z,2.70
2018-05-21T12:08:49.727Z,2.30
2018-05-21T12:09:49.737Z,2.80
2018-05-21T12:10:49.739Z,2.70
2018-05-21T12:11:49.800Z,2.20
2018-05-21T12:12:49.769Z,2.80
2018-05-21T12:14:10.794Z,2.20
2018-05-21T12:14:49.788Z,2.90
2018-05-21T12:15:49.805Z,2.60
2018-05-21T12:16:49.844Z,2.40
2018-05-21T12:17:49.845Z,2.70
2018-05-21T12:18:49.845Z,2.40
2018-05-21T12:20:10.892Z,2.70
2018-05-21T12:20:49.873Z,2.40
2018-05-21T12:21:49.864Z,2.50
2018-05-21T12:22:49.901Z,2.50
2018-05-21T12:23:51.797Z,2.10
2018-05-21T12:24:49.928Z,2.90
2018-05-21T12:26:10.949Z,2.60
2018-05-21T12:26:49.968Z,2.00
2018-05-21T12:27:49.968Z,2.30
2018-05-21T12:28:50.008Z,2.50
2018-05-21T12:29:49.997Z,2.50
2018-05-21T12:30:50.008Z,2.40
2018-05-21T12:32:11.033Z,2.30
2018-05-21T12:32:50.047Z,2.50
2018-05-21T12:33:50.098Z,2.70
2018-05-21T12:34:50.108Z,2.40
2018-05-21T12:35:50.083Z,2.00
2018-05-21T12:36:50.116Z,2.10
2018-05-21T12:38:11.186Z,2.30
2018-05-21T12:38:50.097Z,2.40
2018-05-21T12:39:50.141Z,2.30
2018-05-21T12:40:50.134Z,2.40
2018-05-21T12:41:51.144Z,2.00
2018-05-21T12:42:50.149Z,2.90
2018-05-21T12:44:11.191Z,2.30
2018-05-21T12:44:50.195Z,2.40
2018-05-21T12:45:50.204Z,2.00
2018-05-21T12:46:50.244Z,1.90
2018-05-21T12:47:50.230Z,2.30
2018-05-21T12:48:50.239Z,2.50
2018-05-21T12:50:11.265Z,2.40
2018-05-21T12:50:50.572Z,2.50
2018-05-21T12:51:50.282Z,2.70
2018-05-21T12:52:50.305Z,2.90
2018-05-21T12:53:50.322Z,2.80
2018-05-21T12:54:50.319Z,2.50
2018-05-21T12:56:11.339Z,2.60
2018-05-21T12:56:50.336Z,2.60
2018-05-21T12:57:50.348Z,2.50
2018-05-21T12:58:50.363Z,2.30
2018-05-21T12:59:50.374Z,2.30
2018-05-21T13:00:50.383Z,2.30
2018-05-21T13:02:11.441Z,2.50
2018-05-21T13:02:50.414Z,2.80
2018-05-21T13:03:50.420Z,2.40
2018-05-21T13:04:50.447Z,2.80
2018-05-21T13:05:50.445Z,2.20
2018-05-21T13:06:50.448Z,2.60
2018-05-21T13:08:11.469Z,2.50
2018-05-21T13:08:50.477Z,2.90
2018-05-21T13:09:50.481Z,2.60
2018-05-21T13:10:50.493Z,2.60
2018-05-21T13:11:50.501Z,2.40
2018-05-21T13:12:50.532Z,2.80
2018-05-21T13:14:11.517Z,2.30
2018-05-21T13:14:50.537Z,2.50
2018-05-21T13:15:50.540Z,2.50
2018-05-21T13:16:50.549Z,2.00
2018-05-21T13:17:50.536Z,2.20
2018-05-21T13:18:50.563Z,2.30